createdAt,value
2023-01-07T00:00:10.006Z,53.03
2023-01-07T00:02:40.615Z,52.81
2023-01-07T00:05:11.029Z,53.28
2023-01-07T00:07:39.427Z,52.86
2023-01-07T00:10:08.468Z,53.47
2023-01-07T00:12:36.844Z,53.42
2023-01-07T00:15:05.964Z,53.39
2023-01-07T00:17:34.485Z,53.25
2023-01-07T00:20:02.854Z,52.98
2023-01-07T00:22:32.622Z,53.15
2023-01-07T00:25:01.095Z,53.03
2023-01-07T00:27:29.490Z,52.87
2023-01-07T00:29:57.928Z,53.34
2023-01-07T00:32:46.304Z,53.02
2023-01-07T00:35:23.208Z,53.40
2023-01-07T00:37:54.019Z,53.03
2023-01-07T00:40:23.327Z,53.01
2023-01-07T00:43:01.621Z,53.25
2023-01-07T00:45:32.983Z,53.45
2023-01-07T00:48:02.381Z,53.08
2023-01-07T00:50:32.079Z,53.03
2023-01-07T00:53:01.840Z,53.43
2023-01-07T00:55:30.788Z,53.00
2023-01-07T00:57:59.515Z,53.50
2023-01-07T01:00:28.325Z,53.34
2023-01-07T01:02:59.367Z,53.22
2023-01-07T01:05:27.872Z,53.23
2023-01-07T01:07:56.573Z,53.23
2023-01-07T01:10:27.948Z,53.14
2023-01-07T01:12:56.399Z,53.18
2023-01-07T01:15:24.816Z,53.31
2023-01-07T01:17:53.659Z,53.38
2023-01-07T01:20:22.168Z,53.40
2023-01-07T01:22:50.588Z,52.97
2023-01-07T01:25:19.028Z,52.85
2023-01-07T01:27:48.744Z,53.26
2023-01-07T01:30:17.602Z,53.00
2023-01-07T01:32:46.037Z,53.26
2023-01-07T01:35:15.805Z,53.05
2023-01-07T01:37:44.705Z,53.04
2023-01-07T01:40:13.498Z,53.21
2023-01-07T01:42:42.016Z,53.14
2023-01-07T01:45:15.606Z,53.27
2023-01-07T01:47:48.372Z,52.81
2023-01-07T01:50:19.787Z,53.08
2023-01-07T01:52:52.838Z,53.20
2023-01-07T01:55:26.246Z,52.66
2023-01-07T01:57:58.416Z,53.06
2023-01-07T02:00:28.382Z,53.37
2023-01-07T02:02:58.549Z,53.19
2023-01-07T02:05:31.603Z,53.08
2023-01-07T02:08:00.354Z,53.25
2023-01-07T02:10:31.742Z,53.11
2023-01-07T02:13:21.367Z,53.47
2023-01-07T02:15:56.299Z,53.17
2023-01-07T02:18:37.510Z,53.01
2023-01-07T02:21:17.822Z,53.24
2023-01-07T02:24:27.189Z,52.90
2023-01-07T02:27:10.415Z,53.21
2023-01-07T02:30:23.485Z,53.26
2023-01-07T02:33:21.378Z,52.92
2023-01-07T02:36:05.420Z,53.17
2023-01-07T02:38:39.912Z,53.38
2023-01-07T02:41:15.387Z,53.20
2023-01-07T02:43:52.912Z,53.25
2023-01-07T02:46:25.073Z,53.06
2023-01-07T02:48:55.006Z,53.08
2023-01-07T02:51:32.909Z,53.24
2023-01-07T02:54:02.271Z,53.06
2023-01-07T02:56:39.203Z,52.94
2023-01-07T02:59:34.272Z,53.39
2023-01-07T03:02:21.222Z,53.49
2023-01-07T03:05:05.529Z,53.22
2023-01-07T03:07:42.786Z,53.33
2023-01-07T03:10:17.238Z,53.58
2023-01-07T03:12:48.108Z,53.18
2023-01-07T03:15:20.135Z,52.88
2023-01-07T03:17:53.434Z,53.16
2023-01-07T03:20:24.733Z,53.37
2023-01-07T03:22:53.860Z,53.09
2023-01-07T03:25:23.572Z,53.23
2023-01-07T03:27:53.389Z,53.48
2023-01-07T03:30:22.947Z,53.28
2023-01-07T03:32:54.345Z,53.15
2023-01-07T03:35:24.596Z,53.37
2023-01-07T03:37:54.301Z,53.31
2023-01-07T03:40:22.809Z,52.94
2023-01-07T03:42:50.662Z,52.95
2023-01-07T03:45:28.106Z,53.32
2023-01-07T03:47:59.385Z,53.10
2023-01-07T03:50:36.251Z,53.38
2023-01-07T03:53:04.905Z,53.22
2023-01-07T03:55:36.237Z,53.39
2023-01-07T03:58:05.441Z,53.25
2023-01-07T04:00:34.147Z,53.34
2023-01-07T04:03:12.537Z,53.03
2023-01-07T04:05:45.596Z,53.17
2023-01-07T04:08:14.756Z,53.28
2023-01-07T04:10:43.864Z,52.92
2023-01-07T04:13:14.132Z,53.29
2023-01-07T04:15:45.742Z,52.98
2023-01-07T04:18:14.296Z,53.26
2023-01-07T04:20:48.140Z,53.30
2023-01-07T04:23:17.797Z,52.91
2023-01-07T04:25:49.561Z,53.18
2023-01-07T04:28:21.830Z,53.17
2023-01-07T04:30:50.611Z,53.39
2023-01-07T04:33:19.751Z,53.46
2023-01-07T04:35:51.240Z,53.10
2023-01-07T04:38:20.489Z,53.00
2023-01-07T04:40:48.999Z,52.97
2023-01-07T04:43:18.052Z,53.12
2023-01-07T04:45:46.529Z,52.88
2023-01-07T04:48:16.922Z,52.82
2023-01-07T04:50:45.559Z,53.48
2023-01-07T04:53:15.571Z,53.04
2023-01-07T04:55:46.269Z,53.15
2023-01-07T04:58:15.608Z,53.25
2023-01-07T05:00:44.087Z,52.95
2023-01-07T05:03:12.556Z,53.01
2023-01-07T05:05:41.548Z,53.31
2023-01-07T05:08:09.918Z,53.54
2023-01-07T05:10:39.737Z,53.54
2023-01-07T05:13:08.843Z,53.13
2023-01-07T05:15:37.344Z,53.14
2023-01-07T05:18:07.271Z,53.40
2023-01-07T05:20:36.027Z,52.92
2023-01-07T05:23:05.710Z,53.36
2023-01-07T05:25:36.136Z,53.11
2023-01-07T05:28:06.048Z,53.48
2023-01-07T05:30:37.216Z,53.41
2023-01-07T05:33:07.238Z,53.33
2023-01-07T05:35:36.926Z,53.37
2023-01-07T05:38:05.784Z,53.18
2023-01-07T05:40:34.619Z,53.32
2023-01-07T05:43:03.136Z,53.08
2023-01-07T05:45:33.022Z,52.89
2023-01-07T05:48:01.581Z,53.20
2023-01-07T05:50:29.979Z,52.83
2023-01-07T05:52:58.818Z,53.19
2023-01-07T05:55:27.336Z,52.86
2023-01-07T05:57:55.838Z,53.29
2023-01-07T06:00:24.868Z,53.35
2023-01-07T06:02:54.572Z,53.27
2023-01-07T06:05:23.350Z,52.91
2023-01-07T06:07:51.732Z,53.30
2023-01-07T06:10:20.123Z,53.30
2023-01-07T06:12:48.536Z,53.06
2023-01-07T06:15:17.414Z,53.14
2023-01-07T06:17:46.013Z,53.07
2023-01-07T06:20:16.019Z,52.98
2023-01-07T06:22:44.857Z,53.21
2023-01-07T06:25:13.677Z,53.04
2023-01-07T06:27:42.084Z,53.01
2023-01-07T06:30:12.281Z,53.21
2023-01-07T06:32:41.760Z,53.38
2023-01-07T06:35:11.952Z,53.22
2023-01-07T06:37:42.351Z,52.94
2023-01-07T06:40:12.002Z,53.41
2023-01-07T06:42:40.383Z,53.02
2023-01-07T06:45:09.537Z,53.38
2023-01-07T06:47:37.965Z,53.21
2023-01-07T06:50:07.001Z,53.04
2023-01-07T06:52:35.413Z,53.02
2023-01-07T06:55:05.753Z,53.49
2023-01-07T06:57:34.167Z,52.85
2023-01-07T07:00:02.944Z,52.99
2023-01-07T07:02:31.737Z,53.13
2023-01-07T07:05:00.144Z,53.16
2023-01-07T07:07:28.580Z,53.14
2023-01-07T07:09:57.095Z,53.21
2023-01-07T07:12:26.875Z,53.37
2023-01-07T07:14:55.231Z,52.97
2023-01-07T07:17:23.610Z,53.41
2023-01-07T07:19:51.990Z,53.14
2023-01-07T07:22:20.409Z,53.02
2023-01-07T07:24:48.887Z,52.97
2023-01-07T07:27:17.417Z,53.39
2023-01-07T07:29:47.277Z,52.99
2023-01-07T07:32:15.678Z,52.97
2023-01-07T07:34:44.153Z,53.04
2023-01-07T07:37:12.604Z,52.81
2023-01-07T07:39:40.997Z,53.51
2023-01-07T07:42:09.404Z,52.92
2023-01-07T07:44:38.325Z,53.25
2023-01-07T07:47:08.037Z,53.20
2023-01-07T07:49:36.510Z,53.02
2023-01-07T07:52:05.278Z,53.39
2023-01-07T07:54:33.697Z,53.00
2023-01-07T07:57:03.805Z,52.91
2023-01-07T07:59:32.211Z,52.94
2023-01-07T08:02:00.694Z,53.23
2023-01-07T08:04:34.093Z,53.04
2023-01-07T08:07:02.791Z,52.95
2023-01-07T08:09:31.108Z,53.27
2023-01-07T08:11:59.759Z,53.06
2023-01-07T08:14:28.166Z,52.96
2023-01-07T08:16:56.695Z,52.97
2023-01-07T08:19:25.231Z,53.09
2023-01-07T08:21:54.938Z,53.00
2023-01-07T08:24:23.354Z,53.21
2023-01-07T08:26:55.392Z,53.28
2023-01-07T08:29:24.152Z,53.26
2023-01-07T08:31:53.163Z,53.01
2023-01-07T08:34:22.087Z,53.04
2023-01-07T08:36:51.114Z,53.28
2023-01-07T08:39:20.901Z,52.71
2023-01-07T08:41:49.353Z,52.69
2023-01-07T08:44:17.675Z,52.94
2023-01-07T08:46:46.622Z,52.86
2023-01-07T08:49:15.063Z,53.18
2023-01-07T08:51:43.503Z,53.09
2023-01-07T08:54:11.871Z,53.06
2023-01-07T08:56:41.676Z,52.71
2023-01-07T08:59:10.054Z,52.75
2023-01-07T09:01:38.589Z,52.84
2023-01-07T09:04:07.039Z,53.07
2023-01-07T09:06:35.413Z,52.95
2023-01-07T09:09:03.844Z,52.97
2023-01-07T09:11:32.258Z,52.57
2023-01-07T09:14:01.969Z,52.68
2023-01-07T09:16:30.498Z,52.87
2023-01-07T09:18:58.932Z,52.86
2023-01-07T09:21:27.403Z,52.93
2023-01-07T09:23:55.951Z,52.65
2023-01-07T09:26:25.157Z,52.40
2023-01-07T09:28:53.570Z,52.57
2023-01-07T09:31:24.114Z,52.30
2023-01-07T09:33:52.699Z,52.41
2023-01-07T09:36:21.263Z,52.26
2023-01-07T09:38:49.674Z,52.03
2023-01-07T09:41:25.625Z,51.59
2023-01-07T09:43:59.632Z,51.88
2023-01-07T09:46:32.022Z,51.70
2023-01-07T09:49:03.507Z,52.03
2023-01-07T09:51:36.224Z,51.63
2023-01-07T09:54:06.769Z,51.71
2023-01-07T09:56:36.544Z,51.62
2023-01-07T09:59:06.485Z,51.65
2023-01-07T10:01:40.780Z,51.48
2023-01-07T10:04:23.314Z,51.46
2023-01-07T10:06:57.963Z,51.66
2023-01-07T10:09:36.737Z,51.82
2023-01-07T10:12:10.154Z,51.78
2023-01-07T10:15:06.279Z,51.76
2023-01-07T10:17:47.120Z,51.33
2023-01-07T10:20:21.286Z,51.39
2023-01-07T10:22:52.798Z,51.47
2023-01-07T10:25:23.729Z,51.05
2023-01-07T10:27:53.177Z,51.32
2023-01-07T10:30:25.826Z,51.38
2023-01-07T10:33:00.788Z,51.41
2023-01-07T10:35:30.343Z,51.46
2023-01-07T10:38:01.978Z,51.23
2023-01-07T10:40:35.284Z,51.30
2023-01-07T10:43:08.489Z,51.13
2023-01-07T10:45:45.053Z,51.42
2023-01-07T10:48:34.397Z,51.05
2023-01-07T10:51:11.534Z,51.47
2023-01-07T10:53:47.318Z,51.42
2023-01-07T10:56:24.298Z,51.20
2023-01-07T10:58:52.823Z,51.53
2023-01-07T11:01:26.321Z,51.21
2023-01-07T11:03:57.932Z,51.01
2023-01-07T11:06:35.560Z,51.24
2023-01-07T11:09:07.382Z,51.08
2023-01-07T11:11:36.632Z,51.46
2023-01-07T11:14:15.331Z,51.38
2023-01-07T11:16:47.858Z,51.38
2023-01-07T11:19:17.636Z,51.08
2023-01-07T11:21:48.553Z,51.31
2023-01-07T11:24:31.060Z,51.09
2023-01-07T11:27:13.765Z,51.62
2023-01-07T11:29:44.107Z,51.15
2023-01-07T11:32:20.856Z,51.31
2023-01-07T11:34:57.373Z,51.51
2023-01-07T11:37:36.573Z,51.31
2023-01-07T11:40:19.090Z,51.70
2023-01-07T11:42:53.175Z,51.43
2023-01-07T11:45:22.823Z,51.54
2023-01-07T11:48:01.853Z,51.18
2023-01-07T11:50:36.467Z,51.47
2023-01-07T11:53:12.916Z,51.27
2023-01-07T11:55:41.691Z,51.36
2023-01-07T11:58:29.941Z,51.42
2023-01-07T12:01:13.356Z,51.18
2023-01-07T12:03:44.532Z,51.25
2023-01-07T12:06:22.516Z,51.25
2023-01-07T12:08:54.549Z,51.14
2023-01-07T12:11:23.330Z,51.27
2023-01-07T12:13:53.544Z,51.64
2023-01-07T12:16:28.431Z,51.43
2023-01-07T12:19:05.790Z,51.41
2023-01-07T12:21:36.938Z,51.37
2023-01-07T12:24:18.143Z,51.94
2023-01-07T12:26:50.681Z,51.77
2023-01-07T12:29:24.220Z,51.90
2023-01-07T12:32:05.185Z,52.09
2023-01-07T12:34:38.664Z,52.36
2023-01-07T12:37:13.513Z,52.36
2023-01-07T12:39:45.703Z,52.09
2023-01-07T12:42:18.359Z,52.16
2023-01-07T12:44:49.718Z,52.49
2023-01-07T12:47:32.078Z,52.49
2023-01-07T12:50:05.162Z,52.22
2023-01-07T12:52:40.067Z,52.63
2023-01-07T12:55:17.236Z,52.33
2023-01-07T12:57:47.775Z,52.77
2023-01-07T13:00:20.447Z,52.20
2023-01-07T13:02:54.603Z,52.77
2023-01-07T13:05:26.197Z,52.45
2023-01-07T13:07:58.162Z,52.73
2023-01-07T13:10:29.120Z,52.42
2023-01-07T13:13:00.884Z,52.80
2023-01-07T13:15:30.994Z,52.83
2023-01-07T13:18:00.499Z,52.60
2023-01-07T13:20:46.824Z,52.56
2023-01-07T13:23:21.096Z,52.41
2023-01-07T13:26:03.044Z,52.21
2023-01-07T13:28:45.204Z,52.49
2023-01-07T13:31:27.306Z,52.33
2023-01-07T13:34:04.830Z,52.58
2023-01-07T13:36:39.462Z,52.28
2023-01-07T13:39:29.379Z,52.21
2023-01-07T13:42:06.994Z,51.87
2023-01-07T13:45:04.694Z,52.54
2023-01-07T13:47:41.692Z,52.53
2023-01-07T13:50:20.894Z,52.38
2023-01-07T13:53:05.336Z,52.29
2023-01-07T13:55:37.737Z,52.45
2023-01-07T13:58:36.945Z,52.44
2023-01-07T14:01:07.348Z,52.26
2023-01-07T14:03:46.844Z,51.89
2023-01-07T14:06:42.417Z,51.86
2023-01-07T14:09:31.773Z,51.82
2023-01-07T14:12:35.836Z,51.37
2023-01-07T14:15:50.005Z,52.00
2023-01-07T14:18:54.151Z,51.17
2023-01-07T14:21:29.963Z,51.26
2023-01-07T14:24:14.036Z,51.25
2023-01-07T14:26:49.566Z,51.55
2023-01-07T14:29:27.048Z,51.04
2023-01-07T14:32:14.073Z,51.10
2023-01-07T14:34:43.909Z,51.33
2023-01-07T14:37:16.701Z,51.34
2023-01-07T14:39:45.997Z,51.06
2023-01-07T14:42:42.853Z,51.24
2023-01-07T14:45:50.907Z,51.30
2023-01-07T14:48:34.298Z,52.06
2023-01-07T14:51:20.564Z,51.77
2023-01-07T14:54:06.536Z,51.79
2023-01-07T14:56:45.395Z,51.50
2023-01-07T14:59:50.149Z,51.87
2023-01-07T15:02:55.277Z,52.29
2023-01-07T15:05:44.499Z,52.27
2023-01-07T15:08:35.514Z,51.54
2023-01-07T15:11:23.549Z,52.19
2023-01-07T15:14:15.077Z,52.35
2023-01-07T15:16:44.171Z,51.98
2023-01-07T15:19:12.669Z,51.96
2023-01-07T15:21:53.109Z,52.41
2023-01-07T15:24:29.584Z,52.15
2023-01-07T15:27:03.225Z,51.94
2023-01-07T15:29:36.650Z,52.44
2023-01-07T15:32:12.329Z,52.33
2023-01-07T15:34:41.014Z,52.75
2023-01-07T15:37:12.396Z,52.54
2023-01-07T15:39:46.793Z,52.18
2023-01-07T15:42:16.343Z,52.43
2023-01-07T15:44:45.038Z,52.60
2023-01-07T15:47:32.303Z,52.57
2023-01-07T15:50:20.563Z,52.48
2023-01-07T15:52:50.690Z,52.68
2023-01-07T15:55:28.984Z,52.57
2023-01-07T15:58:04.138Z,52.88
2023-01-07T16:00:34.727Z,53.41
2023-01-07T16:03:03.680Z,53.60
2023-01-07T16:05:32.441Z,53.60
2023-01-07T16:08:02.278Z,53.55
2023-01-07T16:10:34.175Z,53.51
2023-01-07T16:13:04.253Z,54.02
2023-01-07T16:15:34.238Z,53.64
2023-01-07T16:18:04.252Z,53.96
2023-01-07T16:20:34.433Z,53.61
2023-01-07T16:23:21.550Z,53.85
2023-01-07T16:25:54.287Z,53.82
2023-01-07T16:28:23.936Z,53.46
2023-01-07T16:30:52.732Z,53.83
2023-01-07T16:33:22.853Z,53.76
2023-01-07T16:35:52.564Z,53.69
2023-01-07T16:38:21.263Z,53.60
2023-01-07T16:40:51.962Z,53.40
2023-01-07T16:43:44.324Z,53.33
2023-01-07T16:46:26.879Z,53.88
2023-01-07T16:49:20.447Z,53.81
2023-01-07T16:51:51.051Z,53.63
2023-01-07T16:54:33.306Z,53.70
2023-01-07T16:57:04.103Z,53.83
2023-01-07T16:59:34.234Z,53.35
2023-01-07T17:02:12.596Z,53.29
2023-01-07T17:04:41.100Z,53.38
2023-01-07T17:07:19.291Z,53.37
2023-01-07T17:09:47.840Z,53.32
2023-01-07T17:12:29.842Z,53.05
2023-01-07T17:14:58.287Z,53.71
2023-01-07T17:17:30.324Z,53.05
2023-01-07T17:20:06.228Z,53.51
2023-01-07T17:22:38.359Z,52.92
2023-01-07T17:25:10.285Z,53.41
2023-01-07T17:27:43.876Z,53.32
2023-01-07T17:30:17.007Z,52.96
2023-01-07T17:32:46.548Z,53.21
2023-01-07T17:35:18.944Z,53.62
2023-01-07T17:37:47.700Z,53.38
2023-01-07T17:40:16.609Z,52.94
2023-01-07T17:43:04.522Z,53.08
2023-01-07T17:45:33.503Z,52.88
2023-01-07T17:48:02.099Z,53.16
2023-01-07T17:50:37.934Z,52.67
2023-01-07T17:53:06.783Z,52.87
2023-01-07T17:55:36.296Z,52.88
2023-01-07T17:58:11.059Z,52.60
2023-01-07T18:00:40.883Z,52.91
2023-01-07T18:03:09.366Z,53.47
2023-01-07T18:05:38.887Z,52.76
2023-01-07T18:08:07.303Z,53.03
2023-01-07T18:10:56.041Z,52.43
2023-01-07T18:13:26.479Z,52.51
2023-01-07T18:15:54.996Z,52.44
2023-01-07T18:18:23.411Z,52.80
2023-01-07T18:20:53.968Z,52.62
2023-01-07T18:23:22.498Z,52.96
2023-01-07T18:25:51.343Z,52.57
2023-01-07T18:28:19.810Z,52.36
2023-01-07T18:30:49.842Z,52.47
2023-01-07T18:33:18.265Z,52.76
2023-01-07T18:35:48.834Z,52.48
2023-01-07T18:38:17.793Z,52.70
2023-01-07T18:40:46.451Z,52.68
2023-01-07T18:43:16.202Z,52.88
2023-01-07T18:45:45.673Z,52.79
2023-01-07T18:48:16.996Z,52.85
2023-01-07T18:50:46.910Z,52.83
2023-01-07T18:53:15.963Z,52.99
2023-01-07T18:55:45.193Z,53.01
2023-01-07T18:58:14.645Z,52.56
2023-01-07T19:00:43.414Z,52.71
2023-01-07T19:03:12.860Z,52.44
2023-01-07T19:05:42.584Z,52.36
2023-01-07T19:08:11.066Z,52.80
2023-01-07T19:10:42.445Z,52.59
2023-01-07T19:13:10.829Z,52.44
2023-01-07T19:15:40.720Z,51.97
2023-01-07T19:18:09.089Z,52.69
2023-01-07T19:20:37.664Z,52.47
2023-01-07T19:23:07.404Z,52.65
2023-01-07T19:25:36.066Z,52.30
2023-01-07T19:28:04.567Z,52.34
2023-01-07T19:30:32.936Z,52.48
2023-01-07T19:33:01.320Z,52.58
2023-01-07T19:35:29.740Z,52.17
2023-01-07T19:37:58.095Z,52.52
2023-01-07T19:40:27.916Z,52.41
2023-01-07T19:42:56.360Z,52.56
2023-01-07T19:45:25.112Z,52.59
2023-01-07T19:47:53.874Z,52.78
2023-01-07T19:50:22.292Z,52.62
2023-01-07T19:52:50.674Z,52.35
2023-01-07T19:55:19.053Z,52.38
2023-01-07T19:57:48.848Z,52.29
2023-01-07T20:00:17.514Z,52.32
2023-01-07T20:02:46.031Z,52.65
2023-01-07T20:05:16.717Z,52.21
2023-01-07T20:07:45.201Z,52.44
2023-01-07T20:10:15.201Z,52.10
2023-01-07T20:12:43.923Z,52.34
2023-01-07T20:15:13.767Z,52.50
2023-01-07T20:17:42.201Z,52.18
2023-01-07T20:20:10.771Z,52.21
2023-01-07T20:22:39.829Z,52.63
2023-01-07T20:25:09.472Z,51.89
2023-01-07T20:27:38.279Z,51.92
2023-01-07T20:30:08.327Z,52.41
2023-01-07T20:32:38.099Z,52.31
2023-01-07T20:35:07.639Z,52.27
2023-01-07T20:37:36.114Z,52.17
2023-01-07T20:40:04.858Z,52.17
2023-01-07T20:42:33.396Z,51.75
2023-01-07T20:45:01.834Z,52.06
2023-01-07T20:47:30.232Z,52.18
2023-01-07T20:49:59.946Z,51.92
2023-01-07T20:52:28.409Z,51.87
2023-01-07T20:54:56.789Z,52.24
2023-01-07T20:57:25.451Z,51.57
2023-01-07T20:59:54.167Z,52.13
2023-01-07T21:02:22.763Z,52.43
2023-01-07T21:04:51.593Z,52.13
2023-01-07T21:07:21.505Z,51.75
2023-01-07T21:09:49.898Z,51.85
2023-01-07T21:12:18.282Z,51.88
2023-01-07T21:14:47.081Z,51.86
2023-01-07T21:17:16.012Z,51.71
2023-01-07T21:19:45.359Z,51.94
2023-01-07T21:22:13.766Z,51.98
2023-01-07T21:24:43.539Z,51.83
2023-01-07T21:27:11.953Z,51.79
2023-01-07T21:29:40.310Z,52.23
2023-01-07T21:32:08.828Z,51.69
2023-01-07T21:34:37.201Z,51.66
2023-01-07T21:37:05.587Z,51.80
2023-01-07T21:39:33.978Z,51.21
2023-01-07T21:42:03.678Z,51.93
2023-01-07T21:44:32.054Z,51.99
2023-01-07T21:47:00.423Z,51.71
2023-01-07T21:49:28.995Z,51.60
2023-01-07T21:51:57.363Z,51.87
2023-01-07T21:54:25.910Z,51.79
2023-01-07T21:56:54.333Z,51.62
2023-01-07T21:59:24.067Z,51.66
2023-01-07T22:01:53.726Z,51.48
2023-01-07T22:04:22.241Z,51.32
2023-01-07T22:06:50.771Z,51.37
2023-01-07T22:09:19.219Z,51.48
2023-01-07T22:11:47.696Z,51.38
2023-01-07T22:14:19.555Z,51.31
2023-01-07T22:16:49.437Z,51.43
2023-01-07T22:19:17.990Z,51.45
2023-01-07T22:21:46.539Z,51.22
2023-01-07T22:24:15.061Z,51.51
2023-01-07T22:26:43.446Z,51.51
2023-01-07T22:29:12.195Z,51.12
2023-01-07T22:31:40.621Z,50.91
2023-01-07T22:34:10.407Z,50.96
2023-01-07T22:36:42.455Z,51.22
2023-01-07T22:39:14.931Z,51.56
2023-01-07T22:41:43.511Z,51.29
2023-01-07T22:44:16.725Z,50.98
2023-01-07T22:46:46.485Z,51.12
2023-01-07T22:49:16.354Z,51.14
2023-01-07T22:51:47.123Z,50.92
2023-01-07T22:54:15.913Z,51.35
2023-01-07T22:56:45.030Z,51.12
2023-01-07T22:59:13.482Z,51.15
2023-01-07T23:01:41.853Z,51.13
2023-01-07T23:04:10.281Z,51.01
2023-01-07T23:06:40.163Z,50.91
2023-01-07T23:09:08.519Z,50.97
2023-01-07T23:11:49.137Z,51.01
2023-01-07T23:14:18.863Z,50.99
2023-01-07T23:16:47.317Z,51.12
2023-01-07T23:19:15.956Z,51.24
2023-01-07T23:21:47.960Z,51.23
2023-01-07T23:24:16.519Z,50.98
2023-01-07T23:26:44.983Z,51.17
2023-01-07T23:29:13.485Z,51.29
2023-01-07T23:31:41.991Z,50.83
2023-01-07T23:34:10.763Z,50.99
2023-01-07T23:36:39.967Z,50.87
2023-01-07T23:39:09.710Z,51.12
2023-01-07T23:41:38.110Z,50.72
2023-01-07T23:44:06.551Z,50.92
2023-01-07T23:46:34.971Z,50.64
2023-01-07T23:49:03.354Z,51.36
2023-01-07T23:51:31.723Z,50.85
2023-01-07T23:54:00.128Z,50.90
2023-01-07T23:56:29.855Z,51.14
2023-01-07T23:58:58.339Z,50.97
